createdAt,value
2023-03-18T00:00:34.476Z,72.15
2023-03-18T00:03:18.570Z,72.45
2023-03-18T00:05:46.463Z,72.52
2023-03-18T00:08:14.274Z,72.29
2023-03-18T00:10:42.104Z,72.26
2023-03-18T00:13:10.630Z,73.15
2023-03-18T00:15:38.501Z,72.88
2023-03-18T00:18:06.676Z,72.80
2023-03-18T00:20:40.524Z,73.21
2023-03-18T00:23:08.878Z,73.31
2023-03-18T00:25:39.023Z,73.69
2023-03-18T00:28:07.658Z,73.77
2023-03-18T00:30:38.892Z,73.72
2023-03-18T00:33:07.435Z,73.69
2023-03-18T00:35:36.437Z,73.95
2023-03-18T00:38:07.747Z,74.12
2023-03-18T00:40:53.737Z,74.23
2023-03-18T00:43:23.581Z,74.51
2023-03-18T00:45:51.489Z,74.19
2023-03-18T00:48:19.334Z,74.40
2023-03-18T00:50:47.175Z,74.32
2023-03-18T00:53:16.595Z,74.57
2023-03-18T00:55:45.261Z,74.49
2023-03-18T00:58:13.506Z,74.88
2023-03-18T01:00:41.696Z,74.68
2023-03-18T01:03:09.595Z,74.38
2023-03-18T01:05:38.332Z,74.54
2023-03-18T01:08:06.345Z,74.55
2023-03-18T01:10:34.459Z,74.67
2023-03-18T01:13:02.676Z,74.66
2023-03-18T01:15:30.487Z,74.60
2023-03-18T01:17:58.491Z,74.20
2023-03-18T01:20:27.186Z,74.38
2023-03-18T01:22:57.120Z,74.32
2023-03-18T01:25:25.362Z,74.23
2023-03-18T01:27:54.462Z,74.27
2023-03-18T01:30:23.759Z,74.23
2023-03-18T01:32:52.409Z,73.94
2023-03-18T01:35:20.324Z,74.05
2023-03-18T01:37:49.286Z,74.36
2023-03-18T01:40:17.862Z,74.25
2023-03-18T01:42:59.343Z,74.23
2023-03-18T01:45:30.371Z,74.19
2023-03-18T01:48:00.323Z,74.42
2023-03-18T01:50:33.512Z,74.06
2023-03-18T01:53:09.347Z,73.83
2023-03-18T01:55:39.989Z,73.91
2023-03-18T01:58:17.294Z,73.88
2023-03-18T02:00:51.722Z,73.62
2023-03-18T02:03:21.416Z,73.64
2023-03-18T02:05:50.468Z,73.57
2023-03-18T02:08:18.580Z,73.37
2023-03-18T02:10:46.654Z,73.43
2023-03-18T02:13:16.337Z,73.69
2023-03-18T02:15:55.473Z,73.57
2023-03-18T02:18:35.517Z,73.70
2023-03-18T02:21:12.599Z,73.90
2023-03-18T02:23:59.735Z,73.93
2023-03-18T02:27:02.563Z,73.94
2023-03-18T02:29:40.369Z,73.84
2023-03-18T02:32:13.972Z,73.77
2023-03-18T02:34:44.316Z,73.72
2023-03-18T02:37:12.810Z,73.63
2023-03-18T02:39:41.672Z,73.45
2023-03-18T02:42:14.449Z,73.57
2023-03-18T02:44:47.949Z,73.42
2023-03-18T02:47:34.377Z,73.46
2023-03-18T02:50:03.835Z,73.43
2023-03-18T02:52:31.818Z,73.71
2023-03-18T02:55:01.793Z,73.10
2023-03-18T02:57:29.686Z,72.98
2023-03-18T02:59:57.605Z,73.18
2023-03-18T03:02:26.433Z,73.43
2023-03-18T03:04:54.421Z,73.48
2023-03-18T03:07:26.942Z,73.37
2023-03-18T03:09:55.275Z,73.58
2023-03-18T03:12:23.452Z,73.76
2023-03-18T03:14:54.344Z,73.70
2023-03-18T03:17:22.824Z,73.68
2023-03-18T03:19:52.235Z,73.94
2023-03-18T03:22:20.078Z,74.05
2023-03-18T03:24:49.404Z,74.10
2023-03-18T03:27:17.849Z,74.16
2023-03-18T03:29:45.840Z,74.07
2023-03-18T03:32:13.866Z,74.00
2023-03-18T03:34:43.482Z,73.77
2023-03-18T03:37:12.703Z,74.18
2023-03-18T03:39:40.947Z,74.30
2023-03-18T03:42:08.905Z,74.17
2023-03-18T03:44:36.692Z,74.14
2023-03-18T03:47:05.046Z,74.34
2023-03-18T03:49:33.394Z,74.59
2023-03-18T03:52:01.456Z,74.46
2023-03-18T03:54:29.832Z,74.31
2023-03-18T03:56:58.349Z,74.51
2023-03-18T03:59:26.401Z,74.34
2023-03-18T04:02:14.354Z,74.67
2023-03-18T04:04:43.555Z,74.55
2023-03-18T04:07:17.697Z,74.43
2023-03-18T04:09:46.741Z,74.60
2023-03-18T04:12:14.831Z,74.80
2023-03-18T04:14:43.361Z,74.69
2023-03-18T04:17:11.604Z,74.45
2023-03-18T04:19:40.155Z,74.38
2023-03-18T04:22:09.824Z,74.41
2023-03-18T04:24:38.792Z,74.30
2023-03-18T04:27:07.746Z,74.29
2023-03-18T04:29:35.541Z,73.98
2023-03-18T04:32:04.367Z,73.97
2023-03-18T04:34:32.798Z,74.02
2023-03-18T04:37:00.673Z,74.01
2023-03-18T04:39:29.057Z,73.82
2023-03-18T04:41:59.799Z,73.92
2023-03-18T04:44:29.193Z,73.70
2023-03-18T04:46:57.153Z,73.59
2023-03-18T04:49:25.710Z,73.28
2023-03-18T04:51:55.057Z,73.31
2023-03-18T04:54:28.457Z,73.27
2023-03-18T04:56:58.118Z,73.27
2023-03-18T04:59:27.593Z,73.15
2023-03-18T05:01:55.825Z,72.82
2023-03-18T05:04:24.258Z,72.89
2023-03-18T05:06:53.436Z,72.92
2023-03-18T05:09:26.254Z,73.01
2023-03-18T05:11:54.499Z,72.94
2023-03-18T05:14:27.437Z,72.94
2023-03-18T05:16:56.139Z,72.86
2023-03-18T05:19:25.377Z,72.73
2023-03-18T05:22:00.517Z,72.51
2023-03-18T05:24:28.676Z,72.45
2023-03-18T05:26:57.494Z,72.44
2023-03-18T05:29:29.876Z,72.57
2023-03-18T05:32:08.972Z,72.02
2023-03-18T05:34:39.193Z,72.29
2023-03-18T05:37:10.101Z,72.20
2023-03-18T05:39:40.221Z,72.18
2023-03-18T05:42:11.569Z,71.91
2023-03-18T05:44:40.510Z,72.03
2023-03-18T05:47:10.097Z,71.95
2023-03-18T05:49:57.826Z,71.81
2023-03-18T05:52:26.600Z,71.52
2023-03-18T05:54:57.001Z,71.74
2023-03-18T05:57:28.552Z,71.59
2023-03-18T06:00:02.464Z,71.62
2023-03-18T06:02:43.790Z,71.20
2023-03-18T06:05:13.755Z,71.50
2023-03-18T06:07:41.899Z,71.15
2023-03-18T06:10:10.617Z,71.13
2023-03-18T06:12:39.581Z,70.74
2023-03-18T06:15:09.162Z,71.01
2023-03-18T06:17:37.644Z,70.54
2023-03-18T06:20:08.886Z,70.53
2023-03-18T06:22:37.204Z,70.63
2023-03-18T06:25:08.267Z,70.75
2023-03-18T06:27:38.504Z,70.34
2023-03-18T06:30:06.844Z,70.58
2023-03-18T06:32:36.958Z,70.80
2023-03-18T06:35:05.334Z,70.46
2023-03-18T06:37:34.093Z,70.49
2023-03-18T06:40:02.250Z,70.57
2023-03-18T06:42:32.240Z,70.46
2023-03-18T06:45:13.798Z,70.15
2023-03-18T06:47:55.278Z,69.92
2023-03-18T06:50:24.468Z,70.02
2023-03-18T06:52:53.176Z,69.92
2023-03-18T06:55:26.803Z,69.75
2023-03-18T06:57:54.750Z,69.12
2023-03-18T07:00:26.896Z,69.15
2023-03-18T07:02:55.485Z,68.51
2023-03-18T07:05:26.630Z,68.27
2023-03-18T07:07:55.808Z,69.05
2023-03-18T07:10:29.671Z,68.52
2023-03-18T07:13:10.743Z,68.27
2023-03-18T07:15:40.296Z,68.32
2023-03-18T07:18:12.076Z,68.37
2023-03-18T07:20:40.368Z,68.01
2023-03-18T07:23:08.339Z,68.23
2023-03-18T07:25:36.723Z,68.00
2023-03-18T07:28:05.902Z,68.02
2023-03-18T07:30:34.250Z,67.09
2023-03-18T07:33:02.543Z,67.36
2023-03-18T07:35:31.171Z,67.36
2023-03-18T07:37:59.460Z,67.31
2023-03-18T07:40:27.444Z,66.94
2023-03-18T07:42:55.779Z,66.42
2023-03-18T07:45:24.002Z,65.61
2023-03-18T07:47:51.899Z,66.18
2023-03-18T07:50:19.903Z,65.04
2023-03-18T07:52:48.241Z,63.02
2023-03-18T07:55:16.465Z,64.17
2023-03-18T07:57:44.312Z,63.22
2023-03-18T08:00:12.702Z,62.11
2023-03-18T08:02:43.698Z,61.20
2023-03-18T08:05:13.796Z,60.63
2023-03-18T08:07:41.766Z,60.27
2023-03-18T08:10:10.178Z,60.34
2023-03-18T08:12:51.557Z,59.83
2023-03-18T08:15:22.441Z,60.30
2023-03-18T08:17:51.209Z,60.35
2023-03-18T08:20:19.357Z,59.93
2023-03-18T08:22:47.356Z,57.83
2023-03-18T08:25:15.916Z,57.27
2023-03-18T08:27:43.866Z,56.89
2023-03-18T08:30:13.767Z,56.04
2023-03-18T08:32:43.830Z,56.19
2023-03-18T08:35:12.971Z,56.11
2023-03-18T08:37:41.244Z,54.65
2023-03-18T08:40:10.059Z,54.82
2023-03-18T08:42:37.870Z,55.57
2023-03-18T08:45:06.529Z,55.41
2023-03-18T08:47:34.298Z,55.14
2023-03-18T08:50:02.087Z,55.45
2023-03-18T08:52:30.088Z,54.38
2023-03-18T08:54:58.603Z,54.26
2023-03-18T08:57:28.074Z,52.88
2023-03-18T08:59:55.956Z,53.55
2023-03-18T09:02:23.780Z,53.81
2023-03-18T09:04:55.148Z,54.35
2023-03-18T09:07:23.064Z,54.03
2023-03-18T09:09:54.093Z,54.46
2023-03-18T09:12:22.747Z,54.04
2023-03-18T09:14:50.656Z,53.58
2023-03-18T09:17:18.523Z,53.35
2023-03-18T09:19:46.385Z,53.00
2023-03-18T09:22:14.337Z,53.49
2023-03-18T09:24:42.363Z,53.84
2023-03-18T09:27:10.821Z,53.13
2023-03-18T09:29:38.701Z,53.56
2023-03-18T09:32:06.912Z,52.75
2023-03-18T09:34:34.723Z,52.49
2023-03-18T09:37:02.456Z,53.07
2023-03-18T09:39:30.262Z,52.67
2023-03-18T09:42:04.334Z,53.19
2023-03-18T09:44:34.848Z,52.62
2023-03-18T09:47:34.269Z,52.40
2023-03-18T09:50:42.136Z,52.07
2023-03-18T09:53:41.954Z,52.35
2023-03-18T09:56:18.035Z,51.93
2023-03-18T09:58:54.723Z,51.78
2023-03-18T10:01:26.456Z,52.39
2023-03-18T10:04:17.071Z,52.32
2023-03-18T10:06:47.264Z,51.19
2023-03-18T10:09:29.128Z,51.11
2023-03-18T10:12:10.340Z,50.90
2023-03-18T10:14:49.990Z,51.12
2023-03-18T10:17:42.637Z,50.44
2023-03-18T10:20:51.775Z,49.36
2023-03-18T10:23:27.439Z,48.89
2023-03-18T10:26:04.809Z,48.01
2023-03-18T10:28:49.304Z,48.89
2023-03-18T10:31:36.625Z,48.50
2023-03-18T10:34:11.938Z,48.88
2023-03-18T10:37:01.384Z,49.38
2023-03-18T10:39:29.701Z,47.28
2023-03-18T10:42:01.849Z,48.26
2023-03-18T10:44:34.292Z,48.48
2023-03-18T10:47:07.146Z,48.20
2023-03-18T10:49:39.251Z,47.43
2023-03-18T10:52:18.411Z,47.99
2023-03-18T10:54:53.024Z,48.30
2023-03-18T10:57:22.693Z,48.34
2023-03-18T10:59:52.318Z,48.50
2023-03-18T11:02:20.426Z,48.25
2023-03-18T11:04:55.381Z,46.71
2023-03-18T11:07:26.759Z,46.75
2023-03-18T11:09:55.103Z,46.82
2023-03-18T11:12:32.600Z,46.74
2023-03-18T11:15:00.774Z,46.66
2023-03-18T11:17:33.276Z,45.69
2023-03-18T11:20:10.968Z,46.30
2023-03-18T11:22:45.861Z,46.18
2023-03-18T11:25:24.200Z,45.44
2023-03-18T11:28:19.932Z,46.12
2023-03-18T11:30:55.346Z,46.24
2023-03-18T11:33:33.393Z,45.71
2023-03-18T11:36:07.095Z,45.75
2023-03-18T11:38:37.277Z,45.96
2023-03-18T11:41:13.353Z,45.25
2023-03-18T11:44:02.542Z,44.86
2023-03-18T11:46:38.812Z,44.89
2023-03-18T11:49:13.158Z,44.05
2023-03-18T11:51:50.000Z,44.44
2023-03-18T11:54:43.312Z,44.90
2023-03-18T11:57:43.499Z,43.83
2023-03-18T12:00:26.574Z,43.88
2023-03-18T12:03:06.083Z,44.11
2023-03-18T12:05:57.074Z,43.55
2023-03-18T12:08:38.549Z,44.24
2023-03-18T12:11:33.098Z,44.22
2023-03-18T12:14:28.513Z,44.12
2023-03-18T12:17:05.468Z,44.56
2023-03-18T12:19:54.936Z,44.08
2023-03-18T12:22:22.648Z,43.80
2023-03-18T12:25:20.761Z,43.42
2023-03-18T12:28:04.283Z,43.73
2023-03-18T12:30:53.236Z,43.34
2023-03-18T12:33:40.344Z,43.87
2023-03-18T12:36:39.894Z,43.45
2023-03-18T12:39:19.983Z,43.36
2023-03-18T12:41:58.013Z,43.59
2023-03-18T12:45:00.977Z,43.47
2023-03-18T12:47:37.160Z,43.68
2023-03-18T12:50:15.416Z,42.78
2023-03-18T12:52:52.289Z,42.65
2023-03-18T12:55:29.430Z,42.87
2023-03-18T12:58:05.376Z,42.97
2023-03-18T13:00:44.296Z,42.76
2023-03-18T13:03:24.815Z,42.28
2023-03-18T13:05:57.373Z,42.64
2023-03-18T13:09:02.182Z,42.31
2023-03-18T13:12:01.908Z,43.14
2023-03-18T13:14:48.636Z,42.80
2023-03-18T13:17:29.745Z,42.91
2023-03-18T13:20:03.892Z,43.05
2023-03-18T13:22:44.154Z,42.46
2023-03-18T13:25:30.525Z,42.76
2023-03-18T13:28:25.584Z,42.15
2023-03-18T13:30:56.183Z,42.49
2023-03-18T13:33:39.402Z,42.10
2023-03-18T13:36:42.469Z,42.39
2023-03-18T13:39:36.301Z,42.85
2023-03-18T13:42:04.120Z,42.64
2023-03-18T13:44:42.475Z,42.69
2023-03-18T13:47:18.096Z,42.84
2023-03-18T13:49:47.411Z,43.09
2023-03-18T13:52:26.835Z,42.95
2023-03-18T13:55:02.181Z,42.32
2023-03-18T13:57:33.433Z,42.39
2023-03-18T14:00:30.665Z,42.54
2023-03-18T14:03:18.088Z,42.61
2023-03-18T14:05:47.089Z,42.30
2023-03-18T14:08:37.291Z,41.78
2023-03-18T14:11:17.364Z,42.02
2023-03-18T14:14:01.868Z,42.16
2023-03-18T14:16:37.786Z,42.16
2023-03-18T14:19:17.798Z,42.33
2023-03-18T14:21:49.318Z,42.35
2023-03-18T14:24:23.212Z,42.32
2023-03-18T14:27:06.825Z,42.37
2023-03-18T14:29:37.490Z,42.68
2023-03-18T14:32:26.178Z,42.89
2023-03-18T14:34:57.539Z,43.16
2023-03-18T14:37:46.816Z,43.24
2023-03-18T14:40:17.834Z,43.43
2023-03-18T14:42:58.366Z,43.42
2023-03-18T14:45:33.689Z,43.14
2023-03-18T14:48:24.435Z,42.88
2023-03-18T14:50:56.090Z,42.65
2023-03-18T14:53:32.555Z,43.17
2023-03-18T14:56:02.910Z,43.33
2023-03-18T14:58:33.774Z,43.73
2023-03-18T15:01:09.789Z,43.64
2023-03-18T15:03:40.862Z,43.69
2023-03-18T15:06:17.816Z,44.03
2023-03-18T15:08:58.874Z,44.10
2023-03-18T15:11:27.078Z,44.53
2023-03-18T15:14:00.079Z,44.71
2023-03-18T15:16:33.091Z,45.08
2023-03-18T15:19:03.694Z,45.26
2023-03-18T15:21:37.651Z,45.06
2023-03-18T15:24:07.830Z,45.25
2023-03-18T15:26:40.901Z,45.65
2023-03-18T15:29:28.854Z,45.88
2023-03-18T15:32:16.482Z,45.96
2023-03-18T15:34:51.118Z,46.30
2023-03-18T15:37:42.658Z,46.67
2023-03-18T15:40:22.527Z,46.68
2023-03-18T15:42:50.849Z,46.66
2023-03-18T15:45:21.871Z,46.86
2023-03-18T15:47:49.770Z,46.92
2023-03-18T15:50:29.138Z,47.19
2023-03-18T15:53:17.931Z,47.33
2023-03-18T15:55:51.771Z,47.44
2023-03-18T15:58:23.456Z,47.56
2023-03-18T16:00:52.775Z,47.97
2023-03-18T16:03:24.647Z,48.32
2023-03-18T16:05:53.903Z,48.42
2023-03-18T16:08:22.870Z,48.63
2023-03-18T16:10:54.797Z,48.68
2023-03-18T16:13:26.679Z,48.78
2023-03-18T16:15:54.613Z,49.19
2023-03-18T16:18:22.903Z,49.51
2023-03-18T16:20:52.925Z,49.50
2023-03-18T16:23:21.257Z,49.89
2023-03-18T16:25:52.623Z,50.18
2023-03-18T16:28:25.898Z,50.36
2023-03-18T16:30:56.362Z,50.52
2023-03-18T16:33:24.998Z,50.89
2023-03-18T16:36:00.402Z,51.07
2023-03-18T16:38:31.255Z,51.38
2023-03-18T16:40:59.163Z,51.66
2023-03-18T16:43:30.397Z,51.88
2023-03-18T16:46:04.239Z,52.84
2023-03-18T16:48:32.641Z,52.90
2023-03-18T16:51:02.794Z,52.99
2023-03-18T16:53:31.700Z,53.22
2023-03-18T16:56:21.975Z,53.81
2023-03-18T16:58:51.407Z,54.08
2023-03-18T17:01:19.599Z,54.56
2023-03-18T17:03:48.136Z,54.57
2023-03-18T17:06:16.275Z,55.13
2023-03-18T17:08:44.120Z,55.46
2023-03-18T17:11:18.405Z,55.61
2023-03-18T17:13:47.340Z,55.99
2023-03-18T17:16:20.200Z,55.96
2023-03-18T17:18:48.241Z,56.11
2023-03-18T17:21:17.090Z,56.09
2023-03-18T17:23:45.776Z,56.65
2023-03-18T17:26:17.093Z,57.19
2023-03-18T17:28:49.333Z,58.32
2023-03-18T17:31:17.502Z,58.84
2023-03-18T17:33:45.458Z,59.35
2023-03-18T17:36:13.289Z,59.88
2023-03-18T17:38:41.188Z,60.97
2023-03-18T17:41:19.357Z,60.87
2023-03-18T17:43:47.408Z,61.08
2023-03-18T17:46:15.257Z,61.36
2023-03-18T17:48:43.850Z,61.27
2023-03-18T17:51:17.409Z,61.42
2023-03-18T17:53:53.227Z,61.80
2023-03-18T17:56:21.057Z,62.53
2023-03-18T17:58:51.561Z,63.40
2023-03-18T18:01:29.296Z,63.79
2023-03-18T18:03:58.861Z,64.52
2023-03-18T18:06:32.140Z,64.56
2023-03-18T18:09:01.178Z,65.69
2023-03-18T18:11:32.281Z,65.89
2023-03-18T18:14:11.197Z,67.20
2023-03-18T18:16:38.998Z,67.68
2023-03-18T18:19:07.803Z,68.33
2023-03-18T18:21:35.632Z,68.62
2023-03-18T18:24:04.491Z,69.04
2023-03-18T18:26:32.420Z,68.75
2023-03-18T18:29:00.415Z,68.81
2023-03-18T18:31:28.907Z,68.89
2023-03-18T18:33:56.829Z,68.90
2023-03-18T18:36:28.196Z,69.10
2023-03-18T18:38:56.747Z,69.17
2023-03-18T18:41:24.572Z,69.32
2023-03-18T18:43:52.774Z,69.21
2023-03-18T18:46:21.967Z,70.07
2023-03-18T18:48:50.181Z,70.82
2023-03-18T18:51:20.229Z,71.25
2023-03-18T18:53:49.660Z,71.50
2023-03-18T18:56:23.597Z,71.87
2023-03-18T18:58:52.888Z,71.79
2023-03-18T19:01:21.165Z,71.78
2023-03-18T19:03:50.009Z,72.14
2023-03-18T19:06:26.146Z,73.10
2023-03-18T19:08:56.664Z,74.12
2023-03-18T19:11:26.268Z,74.33
2023-03-18T19:13:55.340Z,73.79
2023-03-18T19:16:33.503Z,73.81
2023-03-18T19:19:01.819Z,74.37
2023-03-18T19:21:29.620Z,74.35
2023-03-18T19:23:58.376Z,74.43
2023-03-18T19:26:27.236Z,74.20
2023-03-18T19:28:59.486Z,74.20
2023-03-18T19:31:32.235Z,74.22
2023-03-18T19:34:00.507Z,75.03
2023-03-18T19:36:37.680Z,75.87
2023-03-18T19:39:06.180Z,75.87
2023-03-18T19:41:33.966Z,75.95
2023-03-18T19:44:06.294Z,75.96
2023-03-18T19:46:40.837Z,75.85
2023-03-18T19:49:11.810Z,76.54
2023-03-18T19:51:39.665Z,76.47
2023-03-18T19:54:33.831Z,76.48
2023-03-18T19:57:03.972Z,77.29
2023-03-18T19:59:38.738Z,77.64
2023-03-18T20:02:23.629Z,78.68
2023-03-18T20:04:54.426Z,78.12
2023-03-18T20:07:24.800Z,77.84
2023-03-18T20:09:53.945Z,78.05
2023-03-18T20:12:24.222Z,78.12
2023-03-18T20:14:52.540Z,78.24
2023-03-18T20:17:36.106Z,78.86
2023-03-18T20:20:05.319Z,79.75
2023-03-18T20:22:36.615Z,79.77
2023-03-18T20:25:06.073Z,79.68
2023-03-18T20:27:34.380Z,79.86
2023-03-18T20:30:02.349Z,80.26
2023-03-18T20:32:30.231Z,80.55
2023-03-18T20:34:58.141Z,80.80
2023-03-18T20:37:36.179Z,80.98
2023-03-18T20:40:07.286Z,81.05
2023-03-18T20:42:35.155Z,81.45
2023-03-18T20:45:02.963Z,81.70
2023-03-18T20:47:30.786Z,82.53
2023-03-18T20:49:58.645Z,83.17
2023-03-18T20:52:29.784Z,82.85
2023-03-18T20:54:57.966Z,83.13
2023-03-18T20:57:26.332Z,82.72
2023-03-18T20:59:54.197Z,82.32
2023-03-18T21:02:31.431Z,82.25
2023-03-18T21:05:01.714Z,82.20
2023-03-18T21:07:30.172Z,82.24
2023-03-18T21:09:58.012Z,82.61
2023-03-18T21:12:25.960Z,82.41
2023-03-18T21:14:53.730Z,83.11
2023-03-18T21:17:27.377Z,83.88
2023-03-18T21:20:04.996Z,83.72
2023-03-18T21:22:37.053Z,83.92
2023-03-18T21:25:07.702Z,83.79
2023-03-18T21:27:36.887Z,84.13
2023-03-18T21:30:06.178Z,84.26
2023-03-18T21:32:34.463Z,83.88
2023-03-18T21:35:02.438Z,83.69
2023-03-18T21:37:30.604Z,83.91
2023-03-18T21:39:58.460Z,83.67
2023-03-18T21:42:29.399Z,84.03
2023-03-18T21:44:57.467Z,84.33
2023-03-18T21:47:27.046Z,84.49
2023-03-18T21:49:54.882Z,84.64
2023-03-18T21:52:29.382Z,84.83
2023-03-18T21:54:58.385Z,84.70
2023-03-18T21:57:26.702Z,85.18
2023-03-18T21:59:54.557Z,85.85
2023-03-18T22:02:37.631Z,86.07
2023-03-18T22:05:18.211Z,86.17
2023-03-18T22:07:46.872Z,86.30
2023-03-18T22:10:16.862Z,86.55
2023-03-18T22:12:45.337Z,86.13
2023-03-18T22:15:34.059Z,86.00
2023-03-18T22:18:02.834Z,86.31
2023-03-18T22:20:30.685Z,86.35
2023-03-18T22:22:58.459Z,86.33
2023-03-18T22:25:39.126Z,86.75
2023-03-18T22:28:06.940Z,86.94
2023-03-18T22:30:35.525Z,87.44
2023-03-18T22:33:04.581Z,87.73
2023-03-18T22:35:33.003Z,87.36
2023-03-18T22:38:01.088Z,87.21
2023-03-18T22:40:31.609Z,87.01
2023-03-18T22:43:01.653Z,86.96
2023-03-18T22:45:32.218Z,86.86
2023-03-18T22:48:03.033Z,86.91
2023-03-18T22:50:33.947Z,87.23
2023-03-18T22:53:05.995Z,87.63
2023-03-18T22:55:39.873Z,88.23
2023-03-18T22:58:18.995Z,88.17
2023-03-18T23:00:47.914Z,88.64
2023-03-18T23:03:18.741Z,88.46
2023-03-18T23:05:48.566Z,88.57
2023-03-18T23:08:16.534Z,88.49
2023-03-18T23:10:45.004Z,88.34
2023-03-18T23:13:34.500Z,88.31
2023-03-18T23:16:05.284Z,88.41
2023-03-18T23:18:33.527Z,88.49
2023-03-18T23:21:01.834Z,88.55
2023-03-18T23:23:30.488Z,88.64
2023-03-18T23:25:58.423Z,88.82
2023-03-18T23:28:26.556Z,89.18
2023-03-18T23:30:54.524Z,89.20
2023-03-18T23:33:22.291Z,89.26
2023-03-18T23:35:50.312Z,89.16
2023-03-18T23:38:18.172Z,89.32
2023-03-18T23:40:46.034Z,90.00
2023-03-18T23:43:14.010Z,89.92
2023-03-18T23:45:42.033Z,89.82
2023-03-18T23:48:09.991Z,89.98
2023-03-18T23:50:37.850Z,89.92
2023-03-18T23:53:05.758Z,90.08
2023-03-18T23:55:35.228Z,90.20
2023-03-18T23:58:04.090Z,90.22
